Bertram, Texas
Current Conditions -  °F | °C
As of 9:19 AM on Sunday 21 Dec 2014 (Local Time) from KBMQ Reporting Station
Overcast Overcast  
Wind Chill: 45°   Ceiling: 1800
Heat Index: 49°   Visibility: 7mi
Dew Point: 45°   Wind: 8mph
Humidity: 86%   Direction: 170°S
Pressure: 30.09"   Gusts: NA
Location:  30.74°N, 98.06°W
Report Text: KBMQ 211519Z AUTO 17007KT 7SM FEW009 OVC018 09/07 A3009 RMK AO2 T00940072
Loading
Personal Weather Stations






























Interactive Weather Map New forecast layout! Learn more

10-Day Weather Forecast

Advertisements
Track Severe Weather on mobile